Time;durP1;ratioP1;P1;durP2;ratioP2;P2;SDS_P1;SDS_P2;PMS_P1;PMS_P2;Temp;Humidity;BMP_temperature;BMP_pressure;BME280_temperature;BME280_humidity;BME280_pressure;Samples;Min_cycle;Max_cycle;Signal;HPM_P1;HPM_P2
2023/12/12 00:01:22;;;;;;;15.68;4.38;;;13.40;96.70;;;;;;4882079;29;20052;-62
2023/12/12 00:03:51;;;;;;;14.27;3.85;;;13.50;96.70;;;;;;4880867;29;20059;-62
2023/12/12 00:06:20;;;;;;;16.00;6.15;;;13.90;96.70;;;;;;4893873;29;20072;-62
2023/12/12 00:08:50;;;;;;;19.83;4.95;;;13.90;96.70;;;;;;4890052;29;20143;-62
2023/12/12 00:11:19;;;;;;;40.22;18.30;;;14.00;96.70;;;;;;4880763;29;20586;-62
2023/12/12 00:13:48;;;;;;;36.42;17.17;;;14.20;96.70;;;;;;4890825;29;20076;-61
2023/12/12 00:16:17;;;;;;;14.00;4.28;;;14.40;96.70;;;;;;4872721;29;20054;-62
2023/12/12 00:18:46;;;;;;;15.43;4.57;;;14.40;96.70;;;;;;4869327;29;20060;-62
2023/12/12 00:21:17;;;;;;;22.60;9.23;;;14.50;96.70;;;;;;4871941;29;20057;-62
2023/12/12 00:23:46;;;;;;;18.42;5.15;;;14.40;96.70;;;;;;4861993;29;20065;-62
2023/12/12 00:26:16;;;;;;;16.73;4.40;;;14.40;96.70;;;;;;4860872;29;20047;-62
2023/12/12 00:28:45;;;;;;;18.40;4.93;;;14.50;96.70;;;;;;4863078;29;20060;-62
2023/12/12 00:31:14;;;;;;;13.43;3.42;;;14.60;96.70;;;;;;4857744;29;20092;-62
2023/12/12 00:33:43;;;;;;;13.00;3.00;;;14.70;96.70;;;;;;4860317;29;20155;-62
2023/12/12 00:36:13;;;;;;;18.60;4.18;;;14.80;96.70;;;;;;4876224;29;20075;-62
2023/12/12 00:38:43;;;;;;;14.52;2.97;;;14.80;96.70;;;;;;4870384;29;20131;-62
2023/12/12 00:41:11;;;;;;;18.50;3.17;;;14.80;96.70;;;;;;4856205;29;20087;-62
2023/12/12 00:43:43;;;;;;;19.83;3.85;;;14.90;96.70;;;;;;4873788;29;20462;-63
2023/12/12 00:46:12;;;;;;;15.30;2.95;;;15.00;96.70;;;;;;4852964;29;20053;-62
2023/12/12 00:48:40;;;;;;;13.90;2.85;;;15.10;96.70;;;;;;4867212;29;20132;-62
2023/12/12 00:51:09;;;;;;;13.00;2.80;;;15.10;96.70;;;;;;4833486;29;20053;-62
2023/12/12 00:53:38;;;;;;;10.70;2.55;;;15.10;96.70;;;;;;4835670;29;20080;-62
2023/12/12 00:56:08;;;;;;;13.70;2.88;;;15.20;96.70;;;;;;4848357;29;20063;-62
2023/12/12 00:58:38;;;;;;;13.70;3.88;;;15.20;96.70;;;;;;4844995;29;20144;-62
2023/12/12 01:01:12;;;;;;;12.20;3.17;;;15.30;96.70;;;;;;4840127;29;20493;-62
2023/12/12 01:03:41;;;;;;;12.68;3.08;;;15.30;96.70;;;;;;4860737;29;20075;-62
2023/12/12 01:06:20;;;;;;;14.80;2.60;;;15.30;96.70;;;;;;4842850;29;20049;-62
2023/12/12 01:08:51;;;;;;;14.50;2.95;;;15.30;96.70;;;;;;4844546;29;20468;-62
2023/12/12 01:11:21;;;;;;;17.30;3.08;;;15.30;96.70;;;;;;4860211;29;20060;-62
2023/12/12 01:13:49;;;;;;;11.27;2.35;;;15.30;96.70;;;;;;4868666;29;20104;-62
2023/12/12 01:16:19;;;;;;;13.18;2.80;;;15.30;96.70;;;;;;4868318;29;20056;-62
2023/12/12 01:18:49;;;;;;;14.23;2.75;;;15.40;96.70;;;;;;4872346;29;20053;-63
2023/12/12 01:21:17;;;;;;;18.60;2.58;;;15.40;96.70;;;;;;4851700;29;20104;-62
2023/12/12 01:23:52;;;;;;;9.43;2.40;;;15.50;96.70;;;;;;4859315;29;20144;-62
2023/12/12 01:26:23;;;;;;;9.00;2.17;;;15.50;96.70;;;;;;4863152;29;20500;-61
2023/12/12 01:28:52;;;;;;;12.48;3.00;;;15.40;96.70;;;;;;4837382;29;20050;-62
2023/12/12 01:31:23;;;;;;;13.95;2.70;;;15.50;96.70;;;;;;4822681;29;20124;-62
2023/12/12 01:33:52;;;;;;;13.80;2.55;;;15.50;96.70;;;;;;4833318;29;20081;-62
2023/12/12 01:36:20;;;;;;;16.40;3.42;;;15.50;96.70;;;;;;4831830;29;20061;-63
2023/12/12 01:38:51;;;;;;;12.15;2.63;;;15.50;96.70;;;;;;4845645;29;20053;-62
2023/12/12 01:41:19;;;;;;;13.85;2.63;;;15.50;96.70;;;;;;4827901;29;20110;-62
2023/12/12 01:43:48;;;;;;;11.25;2.53;;;15.50;96.70;;;;;;4806321;29;20239;-62
2023/12/12 01:46:18;;;;;;;11.25;2.28;;;15.50;96.70;;;;;;4832912;29;20061;-62
2023/12/12 01:48:50;;;;;;;11.68;1.98;;;15.50;96.70;;;;;;4817215;29;20057;-62
2023/12/12 01:51:20;;;;;;;18.83;3.10;;;15.50;96.70;;;;;;4811026;29;20076;-62
2023/12/12 01:53:51;;;;;;;11.98;3.03;;;15.50;96.70;;;;;;4824779;29;20091;-62
2023/12/12 01:56:20;;;;;;;14.98;3.17;;;15.50;96.70;;;;;;4811090;29;20073;-62
2023/12/12 01:58:52;;;;;;;12.48;3.03;;;15.40;96.70;;;;;;4815931;29;20146;-62
2023/12/12 02:01:21;;;;;;;12.95;2.50;;;15.50;96.70;;;;;;4823525;29;20568;-62
2023/12/12 02:03:54;;;;;;;12.73;3.30;;;15.40;96.70;;;;;;4833016;29;20050;-62
2023/12/12 02:06:23;;;;;;;14.52;2.90;;;15.40;96.70;;;;;;4833872;29;20125;-62
2023/12/12 02:08:52;;;;;;;13.75;4.03;;;15.50;96.70;;;;;;4819715;29;20049;-61
2023/12/12 02:11:23;;;;;;;11.80;2.63;;;15.50;96.70;;;;;;4825024;29;20073;-62
2023/12/12 02:13:52;;;;;;;15.25;2.75;;;15.50;96.70;;;;;;4821191;29;20053;-62
2023/12/12 02:16:20;;;;;;;12.82;2.97;;;15.50;96.70;;;;;;4824614;29;20058;-62
2023/12/12 02:18:50;;;;;;;11.27;2.83;;;15.50;96.70;;;;;;4818799;29;20149;-62
2023/12/12 02:21:20;;;;;;;9.98;2.35;;;15.50;96.70;;;;;;4833435;29;20057;-62
2023/12/12 02:23:49;;;;;;;10.52;2.80;;;15.40;96.70;;;;;;4826975;29;20053;-62
2023/12/12 02:26:17;;;;;;;12.35;2.35;;;15.40;96.70;;;;;;4810453;29;20057;-62
2023/12/12 02:28:46;;;;;;;16.08;2.45;;;15.40;96.70;;;;;;4813049;29;20065;-62
2023/12/12 02:31:16;;;;;;;14.73;2.60;;;15.40;96.70;;;;;;4817731;29;20052;-62
2023/12/12 02:33:44;;;;;;;12.30;1.98;;;15.40;96.70;;;;;;4814877;29;20054;-62
2023/12/12 02:36:15;;;;;;;18.75;3.47;;;15.50;96.70;;;;;;4848583;29;20056;-62
2023/12/12 02:38:45;;;;;;;13.57;2.45;;;15.50;96.70;;;;;;4850113;29;20140;-62
2023/12/12 02:41:14;;;;;;;15.27;3.00;;;15.50;96.70;;;;;;4861212;29;20089;-62
2023/12/12 02:46:46;;;;;;;11.50;2.15;;;15.50;96.70;;;;;;5122830;23;20214;-62
2023/12/12 02:52:27;;;;;;;18.27;3.45;;;15.50;96.70;;;;;;4903615;29;20108;-63
2023/12/12 02:54:58;;;;;;;10.55;1.98;;;15.50;96.70;;;;;;4872937;29;20052;-63
2023/12/12 02:57:28;;;;;;;13.48;2.33;;;15.50;96.70;;;;;;4874143;29;20461;-63
2023/12/12 02:59:57;;;;;;;10.77;3.13;;;15.50;96.70;;;;;;4900887;29;20059;-62
2023/12/12 03:02:27;;;;;;;17.17;2.67;;;15.50;96.70;;;;;;4895756;29;20102;-62
2023/12/12 03:04:55;;;;;;;13.70;2.85;;;15.50;96.70;;;;;;4886181;29;20105;-63
2023/12/12 03:07:24;;;;;;;13.48;2.70;;;15.50;96.70;;;;;;4890488;29;20046;-63
2023/12/12 03:09:53;;;;;;;14.00;2.95;;;15.50;96.70;;;;;;4893570;29;20056;-63
2023/12/12 03:12:23;;;;;;;13.57;2.92;;;15.50;96.70;;;;;;4900901;29;20059;-63
2023/12/12 03:14:53;;;;;;;15.30;3.20;;;15.50;96.70;;;;;;4895276;29;20144;-63
2023/12/12 03:17:23;;;;;;;16.98;2.75;;;15.50;96.70;;;;;;4905527;29;20171;-62
2023/12/12 03:19:54;;;;;;;20.10;4.55;;;15.40;96.70;;;;;;4907497;29;20133;-62
2023/12/12 03:22:23;;;;;;;10.77;2.72;;;15.50;96.70;;;;;;4893007;29;20111;-62
2023/12/12 03:24:53;;;;;;;14.82;2.60;;;15.50;96.70;;;;;;4887302;29;20040;-62
2023/12/12 03:27:23;;;;;;;15.30;2.50;;;15.50;96.70;;;;;;4892074;29;20151;-62
2023/12/12 03:29:52;;;;;;;13.75;3.50;;;15.50;96.70;;;;;;4892244;29;20142;-62
2023/12/12 03:32:21;;;;;;;17.55;3.20;;;15.50;96.70;;;;;;4889191;29;20055;-62
2023/12/12 03:34:53;;;;;;;16.67;2.92;;;15.50;96.70;;;;;;4899964;29;20040;-62
2023/12/12 03:37:21;;;;;;;12.25;2.30;;;15.50;96.70;;;;;;4895117;29;20055;-62
2023/12/12 03:39:51;;;;;;;15.10;3.13;;;15.50;96.70;;;;;;4880721;29;20040;-62
2023/12/12 03:42:25;;;;;;;11.18;2.30;;;15.50;96.70;;;;;;4893042;29;20056;-62
2023/12/12 03:44:53;;;;;;;16.10;3.78;;;15.50;96.70;;;;;;4892482;29;20096;-62
2023/12/12 03:47:23;;;;;;;11.65;2.78;;;15.60;96.70;;;;;;4896032;29;20052;-62
2023/12/12 03:49:51;;;;;;;16.75;4.05;;;15.60;96.70;;;;;;4900525;29;20079;-63
2023/12/12 03:52:20;;;;;;;13.93;4.15;;;15.50;96.70;;;;;;4910237;29;20665;-62
2023/12/12 03:54:51;;;;;;;24.27;6.68;;;15.50;96.70;;;;;;4914031;29;20135;-62
2023/12/12 03:57:19;;;;;;;12.57;3.35;;;15.50;96.70;;;;;;4903560;29;20446;-62
2023/12/12 03:59:51;;;;;;;12.30;3.10;;;15.60;96.70;;;;;;4884634;29;20047;-62
2023/12/12 04:02:19;;;;;;;14.60;3.10;;;15.50;96.70;;;;;;4888791;29;20425;-63
2023/12/12 04:04:49;;;;;;;13.77;2.90;;;15.50;96.70;;;;;;4883257;29;20050;-63
2023/12/12 04:07:18;;;;;;;13.52;2.92;;;15.60;96.70;;;;;;4904560;29;20116;-63
2023/12/12 04:09:48;;;;;;;14.82;2.53;;;15.50;96.70;;;;;;4890903;29;20047;-63
2023/12/12 04:12:16;;;;;;;15.63;2.90;;;15.50;96.70;;;;;;4893254;29;20056;-62
2023/12/12 04:14:45;;;;;;;13.52;2.63;;;15.50;96.70;;;;;;4889990;29;20044;-62
2023/12/12 04:17:16;;;;;;;14.75;2.35;;;15.50;96.70;;;;;;4897527;29;20048;-62
2023/12/12 04:19:45;;;;;;;15.93;3.05;;;15.50;96.70;;;;;;4877809;29;20052;-63
2023/12/12 04:22:16;;;;;;;14.98;3.05;;;15.50;96.70;;;;;;4885764;29;20099;-62
2023/12/12 04:24:45;;;;;;;14.48;3.35;;;15.50;96.70;;;;;;4901103;29;20051;-62
2023/12/12 04:27:13;;;;;;;14.40;2.95;;;15.50;96.70;;;;;;4913258;29;20411;-62
2023/12/12 04:29:43;;;;;;;14.45;2.30;;;15.50;96.70;;;;;;4890966;29;20075;-62
2023/12/12 04:32:11;;;;;;;17.83;3.88;;;15.50;96.70;;;;;;4903912;29;20075;-62
2023/12/12 04:34:42;;;;;;;20.80;3.20;;;15.50;96.70;;;;;;4868563;29;20155;-62
2023/12/12 04:37:11;;;;;;;12.05;2.92;;;15.60;96.70;;;;;;4857636;29;20049;-62
2023/12/12 04:39:39;;;;;;;10.65;2.30;;;15.50;96.70;;;;;;4872810;29;20063;-62
2023/12/12 04:42:08;;;;;;;15.20;2.40;;;15.50;96.70;;;;;;4871125;29;20055;-62
2023/12/12 04:44:38;;;;;;;10.45;2.90;;;15.50;96.70;;;;;;4850732;29;20049;-62
2023/12/12 04:47:08;;;;;;;9.00;2.72;;;15.60;96.70;;;;;;4857923;29;20073;-63
2023/12/12 04:49:37;;;;;;;15.88;1.92;;;15.60;96.70;;;;;;4857242;29;20152;-62
2023/12/12 04:52:07;;;;;;;8.15;1.95;;;15.70;96.70;;;;;;4838399;29;20805;-62
2023/12/12 04:54:36;;;;;;;9.02;2.00;;;15.70;96.70;;;;;;4837102;29;20056;-63
2023/12/12 04:57:04;;;;;;;10.60;2.47;;;15.70;96.70;;;;;;4832889;29;20046;-63
2023/12/12 04:59:33;;;;;;;9.43;1.88;;;15.80;96.70;;;;;;4815954;29;20053;-62
2023/12/12 05:02:06;;;;;;;9.45;1.67;;;15.80;96.70;;;;;;4820274;29;20054;-63
2023/12/12 05:04:37;;;;;;;8.45;1.55;;;15.90;96.70;;;;;;4842624;29;20373;-63
2023/12/12 05:07:07;;;;;;;7.88;1.92;;;15.90;96.70;;;;;;4842536;29;20097;-62
2023/12/12 05:09:38;;;;;;;12.13;2.33;;;15.90;96.70;;;;;;4838810;29;20061;-63
2023/12/12 05:12:08;;;;;;;7.93;1.80;;;15.90;96.70;;;;;;4824425;29;20102;-62
2023/12/12 05:14:36;;;;;;;10.40;1.90;;;15.90;96.70;;;;;;4835790;29;20091;-62
2023/12/12 05:17:05;;;;;;;8.52;2.25;;;15.80;96.70;;;;;;4820815;29;20064;-63
2023/12/12 05:19:38;;;;;;;11.00;2.25;;;15.80;96.70;;;;;;4839763;29;20054;-63
2023/12/12 05:22:08;;;;;;;9.85;1.75;;;15.80;96.70;;;;;;4843283;29;20057;-63
2023/12/12 05:24:37;;;;;;;8.82;1.83;;;15.80;96.70;;;;;;4876796;29;20059;-62
2023/12/12 05:27:06;;;;;;;9.90;2.72;;;15.80;96.70;;;;;;4875619;29;20060;-62
2023/12/12 05:29:37;;;;;;;6.60;1.58;;;15.80;96.70;;;;;;4866446;29;20066;-62
2023/12/12 05:32:06;;;;;;;11.35;2.03;;;15.80;96.70;;;;;;4879199;29;20048;-63
2023/12/12 05:34:36;;;;;;;10.15;1.95;;;15.90;96.70;;;;;;4885208;29;20068;-62
2023/12/12 05:37:08;;;;;;;8.93;1.67;;;15.90;96.70;;;;;;4866091;29;20056;-62
2023/12/12 05:39:41;;;;;;;5.28;1.42;;;15.90;96.70;;;;;;4866074;29;20733;-62
2023/12/12 05:42:10;;;;;;;10.43;1.77;;;15.90;96.70;;;;;;4875947;29;20048;-62
2023/12/12 05:44:39;;;;;;;8.57;1.90;;;16.00;96.70;;;;;;4880142;29;20044;-62
2023/12/12 05:47:10;;;;;;;8.02;1.73;;;16.00;96.70;;;;;;4924995;29;20969;-63
2023/12/12 05:49:39;;;;;;;6.68;1.48;;;16.00;96.70;;;;;;4865781;29;20067;-63
2023/12/12 05:52:08;;;;;;;12.02;2.28;;;16.00;96.70;;;;;;4895261;29;20055;-62
2023/12/12 05:54:37;;;;;;;9.82;1.80;;;16.00;96.70;;;;;;4907515;29;20142;-62
2023/12/12 05:57:10;;;;;;;8.27;2.00;;;16.10;96.70;;;;;;4880832;29;20115;-63
2023/12/12 05:59:38;;;;;;;10.95;1.75;;;16.10;96.70;;;;;;4916725;29;20075;-63
2023/12/12 06:02:08;;;;;;;9.05;2.10;;;16.10;96.70;;;;;;4887851;29;20059;-63
2023/12/12 06:04:38;;;;;;;7.35;1.77;;;16.10;96.70;;;;;;4898147;29;20048;-62
2023/12/12 06:07:08;;;;;;;11.65;1.65;;;16.10;96.70;;;;;;4905858;29;20456;-63
2023/12/12 06:09:38;;;;;;;8.93;1.80;;;16.10;96.70;;;;;;4890859;29;20122;-63
2023/12/12 06:12:10;;;;;;;11.82;2.20;;;16.10;96.70;;;;;;4911211;29;20052;-62
2023/12/12 06:14:39;;;;;;;9.68;2.80;;;16.10;96.70;;;;;;4885378;29;20506;-63
2023/12/12 06:17:08;;;;;;;13.35;2.83;;;16.10;96.70;;;;;;4894256;29;20130;-63
2023/12/12 06:19:36;;;;;;;10.90;1.42;;;16.10;96.70;;;;;;4888089;29;20056;-62
2023/12/12 06:22:07;;;;;;;12.75;2.30;;;16.10;96.70;;;;;;4880991;29;20055;-63
2023/12/12 06:24:36;;;;;;;8.82;2.13;;;16.10;96.70;;;;;;4896680;29;20044;-63
2023/12/12 06:27:05;;;;;;;9.35;2.33;;;16.10;96.70;;;;;;4881692;29;20072;-63
2023/12/12 06:29:35;;;;;;;11.82;1.90;;;16.10;96.70;;;;;;4882915;29;20070;-62
2023/12/12 06:32:06;;;;;;;6.30;2.13;;;16.10;96.70;;;;;;4883005;29;20059;-62
2023/12/12 06:34:35;;;;;;;9.70;2.55;;;16.10;96.70;;;;;;4860906;29;20079;-63
2023/12/12 06:37:05;;;;;;;13.88;2.67;;;16.00;96.70;;;;;;4870357;29;20056;-63
2023/12/12 06:39:34;;;;;;;12.23;1.95;;;16.10;96.70;;;;;;4888570;29;20128;-63
2023/12/12 06:42:03;;;;;;;13.38;3.35;;;16.10;96.70;;;;;;4865155;29;20060;-62
2023/12/12 06:44:31;;;;;;;9.95;2.25;;;16.10;96.70;;;;;;4885197;29;20055;-63
2023/12/12 06:47:01;;;;;;;8.57;2.65;;;16.10;96.70;;;;;;4876441;29;20584;-63
2023/12/12 06:49:32;;;;;;;8.63;2.13;;;16.10;96.70;;;;;;4868010;29;20076;-63
2023/12/12 06:52:03;;;;;;;9.63;2.03;;;16.10;96.70;;;;;;4872632;29;20056;-63
2023/12/12 06:54:32;;;;;;;8.98;2.60;;;16.00;96.70;;;;;;4893658;29;20052;-62
2023/12/12 06:57:02;;;;;;;8.48;1.73;;;16.10;96.70;;;;;;4873076;29;20048;-62
2023/12/12 06:59:31;;;;;;;9.25;2.67;;;16.10;96.70;;;;;;4880035;29;20175;-63
2023/12/12 07:02:01;;;;;;;11.30;2.53;;;16.10;96.70;;;;;;4867774;29;20075;-63
2023/12/12 07:04:32;;;;;;;6.65;2.30;;;16.10;96.70;;;;;;4871071;29;20147;-63
2023/12/12 07:07:01;;;;;;;9.38;2.17;;;16.10;96.70;;;;;;4894098;29;20056;-62
2023/12/12 07:09:31;;;;;;;9.73;2.03;;;16.10;96.70;;;;;;4886117;29;20537;-62
2023/12/12 07:12:01;;;;;;;10.27;2.03;;;16.10;96.70;;;;;;4888620;29;20052;-62
2023/12/12 07:14:49;;;;;;;8.30;1.70;;;16.10;96.70;;;;;;4895998;29;20071;-62
2023/12/12 07:17:21;;;;;;;8.65;2.17;;;16.10;96.70;;;;;;4894773;29;20534;-63
2023/12/12 07:19:52;;;;;;;14.00;3.20;;;16.10;96.70;;;;;;4891977;29;20111;-63
2023/12/12 07:22:21;;;;;;;26.55;12.55;;;16.10;96.70;;;;;;4903088;29;20076;-63
2023/12/12 07:24:51;;;;;;;14.85;4.20;;;16.00;96.70;;;;;;4901246;29;20071;-63
2023/12/12 07:27:22;;;;;;;11.80;3.40;;;16.00;96.70;;;;;;4893204;29;20051;-62
2023/12/12 07:29:53;;;;;;;15.52;3.53;;;15.90;96.70;;;;;;4902233;29;20044;-63
2023/12/12 07:32:26;;;;;;;11.43;2.63;;;15.90;96.70;;;;;;4894889;29;20056;-63
2023/12/12 07:34:55;;;;;;;8.48;1.98;;;15.90;96.70;;;;;;4888187;29;20052;-63
2023/12/12 07:37:27;;;;;;;11.43;2.33;;;15.90;96.70;;;;;;4890210;29;20040;-63
2023/12/12 07:39:56;;;;;;;8.18;2.05;;;15.90;96.70;;;;;;4896640;29;20482;-62
2023/12/12 07:42:28;;;;;;;16.23;2.70;;;15.90;96.70;;;;;;4914094;29;20151;-62
2023/12/12 07:44:59;;;;;;;12.35;2.90;;;15.90;96.70;;;;;;4902627;29;20142;-62
2023/12/12 07:47:31;;;;;;;12.18;3.70;;;15.90;96.70;;;;;;4898264;29;20060;-63
2023/12/12 07:50:10;;;;;;;9.57;3.33;;;15.90;96.70;;;;;;4891291;29;20048;-63
2023/12/12 07:52:40;;;;;;;23.98;9.32;;;15.90;96.70;;;;;;4901158;29;20071;-63
2023/12/12 07:55:09;;;;;;;16.83;6.93;;;15.90;96.70;;;;;;4899281;29;20524;-63
2023/12/12 07:57:40;;;;;;;16.85;5.65;;;15.90;96.70;;;;;;4910967;29;20063;-62
2023/12/12 08:00:10;;;;;;;19.05;6.18;;;15.80;96.70;;;;;;4888523;29;20052;-63
2023/12/12 08:02:42;;;;;;;15.27;5.30;;;15.80;96.70;;;;;;4896035;29;20072;-63
2023/12/12 08:05:12;;;;;;;17.30;4.78;;;15.80;96.70;;;;;;4889677;29;20052;-63
2023/12/12 08:07:43;;;;;;;17.52;4.97;;;15.80;96.70;;;;;;4894246;29;20048;-63
2023/12/12 08:10:13;;;;;;;19.33;5.20;;;15.70;96.70;;;;;;4881015;29;20079;-63
2023/12/12 08:12:42;;;;;;;15.35;4.68;;;15.70;96.70;;;;;;4900601;29;20099;-64
2023/12/12 08:15:13;;;;;;;18.55;4.68;;;15.70;96.70;;;;;;4878847;29;20056;-64
2023/12/12 08:17:45;;;;;;;15.57;4.50;;;15.70;96.70;;;;;;4911207;29;20115;-64
2023/12/12 08:20:15;;;;;;;19.80;7.88;;;15.60;96.70;;;;;;4897790;29;20794;-64
2023/12/12 08:22:45;;;;;;;32.47;12.57;;;15.60;96.70;;;;;;4896598;29;20058;-64
2023/12/12 08:25:15;;;;;;;29.17;10.23;;;15.60;96.70;;;;;;4908601;29;20063;-64
2023/12/12 08:27:44;;;;;;;32.95;9.50;;;15.60;96.70;;;;;;4891919;29;20094;-62
2023/12/12 08:30:13;;;;;;;17.67;7.07;;;15.50;96.70;;;;;;4898777;29;20070;-63
2023/12/12 08:32:44;;;;;;;22.75;6.95;;;15.60;96.70;;;;;;4907377;29;20055;-63
2023/12/12 08:35:13;;;;;;;23.95;6.82;;;15.60;96.70;;;;;;4895684;29;20054;-63
2023/12/12 08:37:42;;;;;;;16.90;6.00;;;15.60;96.70;;;;;;4911067;29;20043;-62
2023/12/12 08:40:12;;;;;;;15.57;4.78;;;15.60;96.70;;;;;;4893393;29;20514;-62
2023/12/12 08:42:41;;;;;;;18.10;5.38;;;15.60;96.70;;;;;;4890762;29;20168;-60
2023/12/12 08:45:10;;;;;;;17.30;6.10;;;15.60;96.70;;;;;;4905345;29;20471;-62
2023/12/12 08:47:40;;;;;;;20.58;5.80;;;15.60;96.70;;;;;;4881577;29;20067;-64
2023/12/12 08:50:11;;;;;;;16.85;4.88;;;15.60;96.70;;;;;;4881454;29;20048;-62
2023/12/12 08:52:40;;;;;;;19.50;6.35;;;15.70;96.70;;;;;;4897163;29;20044;-61
2023/12/12 08:55:11;;;;;;;17.95;5.90;;;15.70;96.70;;;;;;4871989;29;20048;-62
2023/12/12 08:57:40;;;;;;;16.38;5.82;;;15.70;96.70;;;;;;4897720;29;20060;-61
2023/12/12 09:00:12;;;;;;;22.92;6.68;;;15.70;96.70;;;;;;4879113;29;20066;-61
2023/12/12 09:02:42;;;;;;;14.65;6.35;;;15.70;96.70;;;;;;4875059;29;20104;-61
2023/12/12 09:05:14;;;;;;;15.13;5.20;;;15.80;96.70;;;;;;4892883;29;20055;-61
2023/12/12 09:07:43;;;;;;;15.70;5.93;;;15.80;96.70;;;;;;4881499;29;20052;-61
2023/12/12 09:10:12;;;;;;;14.68;4.25;;;15.80;96.70;;;;;;4881347;29;20048;-61
2023/12/12 09:12:43;;;;;;;14.05;4.05;;;15.80;96.70;;;;;;4881746;29;20059;-61
2023/12/12 09:15:12;;;;;;;16.23;4.25;;;15.80;96.70;;;;;;4881819;29;20082;-62
2023/12/12 09:17:41;;;;;;;12.38;3.50;;;15.80;96.70;;;;;;4881518;29;20166;-61
2023/12/12 09:20:12;;;;;;;14.85;3.45;;;15.90;96.70;;;;;;4866097;29;20055;-61
2023/12/12 09:22:42;;;;;;;11.90;3.17;;;15.90;96.70;;;;;;4887625;29;20067;-62
2023/12/12 09:25:11;;;;;;;13.02;3.00;;;15.90;96.70;;;;;;4881078;29;20074;-61
2023/12/12 09:27:40;;;;;;;12.52;3.42;;;15.90;96.70;;;;;;4895018;29;20099;-62
2023/12/12 09:30:10;;;;;;;16.35;3.97;;;15.90;96.70;;;;;;4913635;29;20103;-61
2023/12/12 09:32:40;;;;;;;10.43;3.40;;;15.90;96.70;;;;;;4864549;29;20108;-61
2023/12/12 09:35:11;;;;;;;12.75;3.10;;;15.90;96.70;;;;;;4880833;29;20604;-61
2023/12/12 09:37:46;;;;;;;14.55;3.72;;;15.90;96.70;;;;;;4873276;29;20048;-61
2023/12/12 09:40:16;;;;;;;30.83;6.22;;;16.00;96.70;;;;;;4877563;29;20083;-61
2023/12/12 09:42:48;;;;;;;18.60;4.40;;;16.00;96.70;;;;;;4880497;29;20071;-61
2023/12/12 09:45:22;;;;;;;19.15;4.00;;;16.00;96.70;;;;;;4881511;29;20062;-61
2023/12/12 09:47:54;;;;;;;12.10;3.55;;;16.10;96.70;;;;;;4889924;29;20070;-61
2023/12/12 09:50:24;;;;;;;12.73;3.92;;;16.20;96.70;;;;;;4884671;29;20135;-61
2023/12/12 09:52:59;;;;;;;16.15;3.67;;;16.30;96.70;;;;;;4898326;29;20166;-61
2023/12/12 09:55:29;;;;;;;15.30;3.88;;;16.30;96.70;;;;;;4889332;29;20155;-61
2023/12/12 09:57:59;;;;;;;15.18;3.85;;;16.40;96.70;;;;;;4889516;29;20059;-61
2023/12/12 10:00:31;;;;;;;19.05;3.50;;;16.50;96.70;;;;;;4881822;29;20139;-61
2023/12/12 10:03:05;;;;;;;11.43;2.88;;;16.50;96.70;;;;;;4897274;29;20048;-61
2023/12/12 10:05:38;;;;;;;11.80;3.28;;;16.50;96.70;;;;;;4881290;29;20048;-61
2023/12/12 10:08:09;;;;;;;10.88;3.50;;;16.40;96.70;;;;;;4887513;29;20052;-61
2023/12/12 10:10:42;;;;;;;11.05;3.10;;;16.40;96.70;;;;;;4899823;29;20435;-62
2023/12/12 10:13:11;;;;;;;10.23;2.65;;;16.50;96.70;;;;;;4894060;29;20557;-62
2023/12/12 10:15:41;;;;;;;15.10;3.53;;;16.50;96.70;;;;;;4894689;29;20052;-61
2023/12/12 10:18:11;;;;;;;8.98;2.60;;;16.50;96.70;;;;;;4891295;29;20059;-62
2023/12/12 10:20:40;;;;;;;8.35;2.90;;;16.50;96.70;;;;;;4903282;29;20048;-62
2023/12/12 10:23:12;;;;;;;9.27;2.78;;;16.50;96.70;;;;;;4910429;29;20055;-62
2023/12/12 10:25:49;;;;;;;10.15;2.70;;;16.50;96.70;;;;;;4906385;29;20128;-61
2023/12/12 10:28:19;;;;;;;9.43;3.50;;;16.40;96.70;;;;;;4898302;29;20134;-63
2023/12/12 10:30:54;;;;;;;7.85;2.80;;;16.40;96.70;;;;;;4881708;29;20507;-61
2023/12/12 10:33:27;;;;;;;7.88;2.53;;;16.40;96.70;;;;;;4882704;29;20055;-62
2023/12/12 10:35:57;;;;;;;7.82;2.75;;;16.40;96.70;;;;;;4898709;29;20046;-62
2023/12/12 10:38:28;;;;;;;9.70;3.58;;;16.30;96.70;;;;;;4882571;29;20052;-62
2023/12/12 10:41:10;;;;;;;7.63;3.55;;;16.30;96.70;;;;;;4924469;29;20066;-62
2023/12/12 10:43:41;;;;;;;6.85;2.92;;;16.30;96.70;;;;;;4891586;29;20048;-61
2023/12/12 10:46:13;;;;;;;8.95;2.90;;;16.30;96.70;;;;;;4895842;29;20059;-61
2023/12/12 10:48:46;;;;;;;9.80;2.80;;;16.30;96.70;;;;;;4870407;29;20056;-61
2023/12/12 10:51:17;;;;;;;8.23;3.00;;;16.30;96.70;;;;;;4874394;29;20052;-61
2023/12/12 10:53:54;;;;;;;10.13;2.53;;;16.30;96.70;;;;;;4880611;29;20128;-61
2023/12/12 10:56:28;;;;;;;5.93;1.65;;;16.40;96.70;;;;;;4875885;29;20385;-62
2023/12/12 10:58:59;;;;;;;13.07;2.70;;;16.70;96.70;;;;;;4871179;29;20068;-61
2023/12/12 11:01:49;;;;;;;6.63;1.95;;;16.80;96.70;;;;;;4864110;29;20052;-62
2023/12/12 11:04:20;;;;;;;7.28;1.75;;;16.90;96.70;;;;;;4861601;29;20079;-62
2023/12/12 11:06:54;;;;;;;10.65;2.00;;;17.00;96.70;;;;;;4861756;29;20112;-62
2023/12/12 11:09:25;;;;;;;6.88;1.83;;;17.10;96.70;;;;;;4861960;29;20061;-62
2023/12/12 11:11:59;;;;;;;11.80;1.92;;;17.10;96.70;;;;;;4876426;29;20070;-62
2023/12/12 11:14:28;;;;;;;4.63;1.25;;;17.10;96.70;;;;;;4870709;29;20125;-61
2023/12/12 11:16:59;;;;;;;9.32;2.05;;;17.10;96.70;;;;;;4870354;29;20068;-62
2023/12/12 11:19:30;;;;;;;7.97;2.05;;;17.10;96.70;;;;;;4877337;29;20056;-62
2023/12/12 11:21:59;;;;;;;11.07;2.45;;;17.10;96.70;;;;;;4892306;29;20489;-62
2023/12/12 11:25:03;;;;;;;9.10;2.22;;;17.00;96.70;;;;;;4863172;29;20040;-61
2023/12/12 11:27:33;;;;;;;9.55;1.58;;;17.00;96.70;;;;;;4894227;29;20043;-61
2023/12/12 11:30:06;;;;;;;8.23;1.92;;;16.90;96.70;;;;;;4881181;29;20048;-62
2023/12/12 11:32:35;;;;;;;11.38;1.92;;;17.00;96.70;;;;;;4867924;29;20051;-62
2023/12/12 11:35:29;;;;;;;8.45;1.98;;;17.00;96.70;;;;;;4892193;29;20056;-62
2023/12/12 11:38:00;;;;;;;9.30;1.60;;;17.00;96.70;;;;;;4869678;29;20491;-62
2023/12/12 11:40:36;;;;;;;6.32;1.35;;;17.10;96.70;;;;;;4869565;29;20053;-62
2023/12/12 11:43:18;;;;;;;10.25;2.65;;;17.10;96.70;;;;;;4865126;29;20147;-61
2023/12/12 11:45:48;;;;;;;8.02;1.70;;;17.20;96.70;;;;;;4881685;29;20142;-62
2023/12/12 11:48:18;;;;;;;8.00;1.63;;;17.20;96.70;;;;;;4912542;29;20139;-62
2023/12/12 11:50:49;;;;;;;9.68;2.05;;;17.20;96.70;;;;;;4866637;29;20086;-61
2023/12/12 11:53:45;;;;;;;8.88;1.67;;;17.20;96.70;;;;;;4910589;29;20064;-62
2023/12/12 11:56:18;;;;;;;11.43;1.77;;;17.20;96.70;;;;;;4918422;29;20072;-62
2023/12/12 11:58:53;;;;;;;7.22;1.60;;;17.20;96.70;;;;;;4888279;29;20058;-62
2023/12/12 12:01:23;;;;;;;6.53;1.38;;;17.20;96.70;;;;;;4892347;29;20685;-62
2023/12/12 12:03:52;;;;;;;6.57;1.63;;;17.20;96.70;;;;;;4892392;29;20134;-62
2023/12/12 12:06:21;;;;;;;8.90;1.90;;;17.20;96.70;;;;;;4895859;29;20052;-62
2023/12/12 12:08:51;;;;;;;7.70;1.55;;;17.10;96.70;;;;;;4884721;29;20104;-62
2023/12/12 12:11:25;;;;;;;12.18;2.05;;;17.10;96.70;;;;;;4912804;29;20569;-62
2023/12/12 12:13:53;;;;;;;7.35;1.60;;;17.00;96.70;;;;;;4897406;29;20483;-62
2023/12/12 12:16:22;;;;;;;6.78;1.95;;;17.00;96.70;;;;;;4889568;29;20572;-62
2023/12/12 12:18:51;;;;;;;11.50;2.30;;;17.00;96.70;;;;;;4879131;29;20124;-62
2023/12/12 12:21:25;;;;;;;8.57;2.20;;;16.90;96.70;;;;;;4869416;29;20127;-62
2023/12/12 12:23:54;;;;;;;6.35;2.25;;;16.90;96.70;;;;;;4893929;29;20055;-62
2023/12/12 12:26:26;;;;;;;9.50;2.33;;;16.90;96.70;;;;;;4890043;29;20063;-62
2023/12/12 12:28:56;;;;;;;11.95;2.33;;;16.80;96.70;;;;;;4872565;29;20075;-61
2023/12/12 12:31:28;;;;;;;20.88;6.82;;;16.80;96.70;;;;;;4877119;29;20044;-62
2023/12/12 12:33:57;;;;;;;11.15;2.38;;;16.80;96.70;;;;;;4894090;29;20058;-62
2023/12/12 12:36:37;;;;;;;9.13;2.17;;;16.80;96.70;;;;;;4876296;29;20067;-62
2023/12/12 12:39:09;;;;;;;10.20;2.58;;;16.70;96.70;;;;;;4874434;29;20056;-62
2023/12/12 12:41:40;;;;;;;7.25;1.92;;;16.70;96.70;;;;;;4875097;29;20431;-62
2023/12/12 12:44:08;;;;;;;9.98;2.00;;;16.70;96.70;;;;;;4886773;29;20052;-62
2023/12/12 12:46:49;;;;;;;7.72;2.45;;;16.70;96.70;;;;;;4862269;29;20761;-62
2023/12/12 12:49:18;;;;;;;10.07;2.80;;;16.70;96.70;;;;;;4844538;29;20089;-62
2023/12/12 12:51:51;;;;;;;16.35;6.65;;;16.70;96.70;;;;;;4863701;29;20527;-62
2023/12/12 12:54:21;;;;;;;16.33;6.28;;;16.70;96.70;;;;;;4850172;29;20044;-62
2023/12/12 12:56:54;;;;;;;19.15;7.53;;;16.70;96.70;;;;;;4876292;29;20107;-61
2023/12/12 12:59:23;;;;;;;11.57;3.95;;;16.70;96.70;;;;;;4864674;29;20132;-61
2023/12/12 13:01:52;;;;;;;13.18;3.60;;;16.70;96.70;;;;;;4872501;29;20049;-62
2023/12/12 13:04:22;;;;;;;13.48;4.75;;;16.60;96.70;;;;;;4893980;29;20052;-62